sensor_id;sensor_type;location;lat;lon;timestamp;pressure;altitude;pressure_sealevel;temperature;humidity
61318;BME280;47201;40.428;-8.436;2023-04-01T00:01:17;101609.53;;;11.57;100.00
61318;BME280;47201;40.428;-8.436;2023-04-01T00:03:18;101616.50;;;11.58;100.00
61318;BME280;47201;40.428;-8.436;2023-04-01T00:05:18;101613.84;;;11.55;100.00
61318;BME280;47201;40.428;-8.436;2023-04-01T00:07:19;101618.13;;;11.44;100.00
61318;BME280;47201;40.428;-8.436;2023-04-01T00:09:38;101621.56;;;11.37;100.00
61318;BME280;47201;40.428;-8.436;2023-04-01T00:11:42;101630.31;;;11.42;100.00
61318;BME280;47201;40.428;-8.436;2023-04-01T00:14:00;101637.31;;;11.43;100.00
61318;BME280;47201;40.428;-8.436;2023-04-01T00:16:20;101640.72;;;11.34;100.00
61318;BME280;47201;40.428;-8.436;2023-04-01T00:18:21;101651.09;;;11.25;100.00
61318;BME280;47201;40.428;-8.436;2023-04-01T00:20:45;101653.63;;;11.17;100.00
61318;BME280;47201;40.428;-8.436;2023-04-01T00:22:45;101628.28;;;11.13;100.00
61318;BME280;47201;40.428;-8.436;2023-04-01T00:24:47;101615.13;;;11.07;100.00
61318;BME280;47201;40.428;-8.436;2023-04-01T00:26:47;101613.34;;;11.03;100.00
61318;BME280;47201;40.428;-8.436;2023-04-01T00:28:49;101616.00;;;11.07;100.00
61318;BME280;47201;40.428;-8.436;2023-04-01T00:30:49;101623.09;;;11.16;100.00
61318;BME280;47201;40.428;-8.436;2023-04-01T00:32:53;101612.84;;;11.38;100.00
61318;BME280;47201;40.428;-8.436;2023-04-01T00:34:53;101616.38;;;11.41;100.00
61318;BME280;47201;40.428;-8.436;2023-04-01T00:36:54;101614.56;;;11.36;100.00
61318;BME280;47201;40.428;-8.436;2023-04-01T00:39:13;101609.31;;;11.34;100.00
61318;BME280;47201;40.428;-8.436;2023-04-01T00:41:14;101616.28;;;11.32;100.00
61318;BME280;47201;40.428;-8.436;2023-04-01T00:43:16;101615.38;;;11.30;100.00
61318;BME280;47201;40.428;-8.436;2023-04-01T00:45:29;101618.88;;;11.31;100.00
61318;BME280;47201;40.428;-8.436;2023-04-01T00:47:48;101617.22;;;11.39;100.00
61318;BME280;47201;40.428;-8.436;2023-04-01T00:49:50;101619.00;;;11.45;100.00
61318;BME280;47201;40.428;-8.436;2023-04-01T00:51:53;101618.13;;;11.47;100.00
61318;BME280;47201;40.428;-8.436;2023-04-01T00:54:14;101612.91;;;11.46;100.00
61318;BME280;47201;40.428;-8.436;2023-04-01T00:56:45;101610.22;;;11.41;100.00
61318;BME280;47201;40.428;-8.436;2023-04-01T00:59:13;101595.38;;;11.38;100.00
61318;BME280;47201;40.428;-8.436;2023-04-01T01:01:16;101591.00;;;11.36;100.00
61318;BME280;47201;40.428;-8.436;2023-04-01T01:03:17;101584.03;;;11.38;100.00
61318;BME280;47201;40.428;-8.436;2023-04-01T01:05:18;101582.25;;;11.34;100.00
61318;BME280;47201;40.428;-8.436;2023-04-01T01:12:14;101567.41;;;11.31;100.00
61318;BME280;47201;40.428;-8.436;2023-04-01T01:27:23;101606.22;;;10.89;100.00
61318;BME280;47201;40.428;-8.436;2023-04-01T01:36:45;101593.84;;;10.76;100.00
61318;BME280;47201;40.428;-8.436;2023-04-01T01:38:49;101589.47;;;10.72;100.00
61318;BME280;47201;40.428;-8.436;2023-04-01T01:40:51;101579.84;;;10.71;100.00
61318;BME280;47201;40.428;-8.436;2023-04-01T01:42:56;101581.69;;;10.81;100.00
61318;BME280;47201;40.428;-8.436;2023-04-01T01:44:58;101582.72;;;10.94;100.00
61318;BME280;47201;40.428;-8.436;2023-04-01T01:47:00;101581.06;;;11.01;100.00
61318;BME280;47201;40.428;-8.436;2023-04-01T01:49:01;101586.31;;;11.04;100.00
61318;BME280;47201;40.428;-8.436;2023-04-01T01:51:04;101598.53;;;11.05;100.00
61318;BME280;47201;40.428;-8.436;2023-04-01T01:53:07;101597.69;;;11.06;100.00
61318;BME280;47201;40.428;-8.436;2023-04-01T01:55:31;101582.88;;;11.08;100.00
61318;BME280;47201;40.428;-8.436;2023-04-01T01:57:33;101585.50;;;11.08;100.00
61318;BME280;47201;40.428;-8.436;2023-04-01T01:59:42;101581.13;;;11.07;100.00
61318;BME280;47201;40.428;-8.436;2023-04-01T02:01:47;101581.97;;;11.06;100.00
61318;BME280;47201;40.428;-8.436;2023-04-01T02:04:07;101581.13;;;11.07;100.00
61318;BME280;47201;40.428;-8.436;2023-04-01T02:06:10;101584.59;;;11.07;100.00
61318;BME280;47201;40.428;-8.436;2023-04-01T02:08:22;101581.13;;;11.07;100.00
61318;BME280;47201;40.428;-8.436;2023-04-01T02:10:45;101568.91;;;11.06;100.00
61318;BME280;47201;40.428;-8.436;2023-04-01T02:12:49;101559.28;;;11.05;100.00
61318;BME280;47201;40.428;-8.436;2023-04-01T02:14:55;101564.56;;;11.08;100.00
61318;BME280;47201;40.428;-8.436;2023-04-01T02:17:04;101561.09;;;11.10;100.00
61318;BME280;47201;40.428;-8.436;2023-04-01T02:19:06;101561.16;;;11.15;100.00
61318;BME280;47201;40.428;-8.436;2023-04-01T02:21:10;101555.97;;;11.23;100.00
61318;BME280;47201;40.428;-8.436;2023-04-01T02:23:11;101565.59;;;11.24;100.00
61318;BME280;47201;40.428;-8.436;2023-04-01T02:25:14;101566.44;;;11.20;100.00
61318;BME280;47201;40.428;-8.436;2023-04-01T02:27:15;101564.63;;;11.17;100.00
61318;BME280;47201;40.428;-8.436;2023-04-01T02:29:16;101575.03;;;11.11;100.00
61318;BME280;47201;40.428;-8.436;2023-04-01T02:31:17;101575.91;;;11.08;100.00
61318;BME280;47201;40.428;-8.436;2023-04-01T02:33:18;101581.13;;;11.07;100.00
61318;BME280;47201;40.428;-8.436;2023-04-01T02:35:19;101578.50;;;11.08;100.00
61318;BME280;47201;40.428;-8.436;2023-04-01T02:37:42;101570.75;;;11.16;100.00
61318;BME280;47201;40.428;-8.436;2023-04-01T02:40:03;101562.91;;;11.19;100.00
61318;BME280;47201;40.428;-8.436;2023-04-01T02:42:06;101559.50;;;11.23;100.00
61318;BME280;47201;40.428;-8.436;2023-04-01T02:44:06;101566.50;;;11.27;100.00
61318;BME280;47201;40.428;-8.436;2023-04-01T02:46:25;101559.53;;;11.33;100.00
61318;BME280;47201;40.428;-8.436;2023-04-01T02:48:44;101557.81;;;11.35;100.00
61318;BME280;47201;40.428;-8.436;2023-04-01T02:51:04;101547.41;;;11.38;100.00
61318;BME280;47201;40.428;-8.436;2023-04-01T02:53:06;101548.31;;;11.41;100.00
61318;BME280;47201;40.428;-8.436;2023-04-01T02:55:06;101550.91;;;11.43;100.00
61318;BME280;47201;40.428;-8.436;2023-04-01T02:57:08;101541.34;;;11.45;100.00
61318;BME280;47201;40.428;-8.436;2023-04-01T02:59:11;101532.59;;;11.45;100.00
61318;BME280;47201;40.428;-8.436;2023-04-01T03:01:13;101530.00;;;11.46;100.00
61318;BME280;47201;40.428;-8.436;2023-04-01T03:03:13;101528.25;;;11.48;100.00
61318;BME280;47201;40.428;-8.436;2023-04-01T03:05:14;101534.41;;;11.52;100.00
61318;BME280;47201;40.428;-8.436;2023-04-01T03:07:14;101535.28;;;11.55;100.00
61318;BME280;47201;40.428;-8.436;2023-04-01T03:09:15;101540.56;;;11.60;100.00
61318;BME280;47201;40.428;-8.436;2023-04-01T03:11:16;101539.75;;;11.64;100.00
61318;BME280;47201;40.428;-8.436;2023-04-01T03:13:16;101544.13;;;11.67;100.00
61318;BME280;47201;40.428;-8.436;2023-04-01T03:15:18;101538.94;;;11.73;100.00
61318;BME280;47201;40.428;-8.436;2023-04-01T03:17:19;101537.22;;;11.75;100.00
61318;BME280;47201;40.428;-8.436;2023-04-01T03:19:19;101534.63;;;11.80;100.00
61318;BME280;47201;40.428;-8.436;2023-04-01T03:21:38;101535.53;;;11.85;100.00
61318;BME280;47201;40.428;-8.436;2023-04-01T03:23:39;101525.94;;;11.90;100.00
61318;BME280;47201;40.428;-8.436;2023-04-01T03:25:40;101512.00;;;11.94;100.00
61318;BME280;47201;40.428;-8.436;2023-04-01T03:27:59;101519.94;;;11.99;100.00
61318;BME280;47201;40.428;-8.436;2023-04-01T03:30:02;101519.03;;;12.00;100.00
61318;BME280;47201;40.428;-8.436;2023-04-01T03:32:21;101512.97;;;12.04;100.00
61318;BME280;47201;40.428;-8.436;2023-04-01T03:34:22;101516.47;;;12.06;100.00
61318;BME280;47201;40.428;-8.436;2023-04-01T03:36:43;101508.59;;;12.06;100.00
61318;BME280;47201;40.428;-8.436;2023-04-01T03:38:46;101506.00;;;12.06;100.00
61318;BME280;47201;40.428;-8.436;2023-04-01T03:40:51;101508.59;;;12.06;100.00
61318;BME280;47201;40.428;-8.436;2023-04-01T03:43:13;101509.47;;;12.06;100.00
61318;BME280;47201;40.428;-8.436;2023-04-01T03:45:14;101503.38;;;12.09;100.00
61318;BME280;47201;40.428;-8.436;2023-04-01T03:47:33;101499.03;;;12.10;100.00
61318;BME280;47201;40.428;-8.436;2023-04-01T03:49:34;101493.75;;;12.08;100.00
61318;BME280;47201;40.428;-8.436;2023-04-01T03:51:53;101499.00;;;12.08;100.00
61318;BME280;47201;40.428;-8.436;2023-04-01T03:53:56;101501.59;;;12.08;100.00
61318;BME280;47201;40.428;-8.436;2023-04-01T03:56:15;101507.75;;;12.10;100.00
61318;BME280;47201;40.428;-8.436;2023-04-01T03:58:34;101511.22;;;12.08;100.00
61318;BME280;47201;40.428;-8.436;2023-04-01T04:00:36;101509.47;;;12.06;100.00
61318;BME280;47201;40.428;-8.436;2023-04-01T04:02:55;101511.19;;;12.03;100.00
61318;BME280;47201;40.428;-8.436;2023-04-01T04:05:15;101504.19;;;12.02;100.00
61318;BME280;47201;40.428;-8.436;2023-04-01T04:07:34;101509.44;;;12.03;100.00
61318;BME280;47201;40.428;-8.436;2023-04-01T04:09:41;101507.69;;;11.99;100.00
61318;BME280;47201;40.428;-8.436;2023-04-01T04:11:42;101510.31;;;11.98;100.00
61318;BME280;47201;40.428;-8.436;2023-04-01T04:13:43;101515.56;;;11.98;100.00
61318;BME280;47201;40.428;-8.436;2023-04-01T04:15:44;101496.31;;;11.97;100.00
61318;BME280;47201;40.428;-8.436;2023-04-01T04:17:46;101498.06;;;11.97;100.00
61318;BME280;47201;40.428;-8.436;2023-04-01T04:19:48;101487.53;;;11.95;100.00
61318;BME280;47201;40.428;-8.436;2023-04-01T04:21:49;101490.22;;;11.98;100.00
61318;BME280;47201;40.428;-8.436;2023-04-01T04:23:51;101488.41;;;11.96;100.00
61318;BME280;47201;40.428;-8.436;2023-04-01T04:25:56;101478.88;;;11.98;100.00
61318;BME280;47201;40.428;-8.436;2023-04-01T04:28:16;101466.56;;;11.95;100.00
61318;BME280;47201;40.428;-8.436;2023-04-01T04:30:17;101468.31;;;11.96;100.00
61318;BME280;47201;40.428;-8.436;2023-04-01T04:32:17;101468.31;;;11.96;100.00
61318;BME280;47201;40.428;-8.436;2023-04-01T04:34:18;101465.75;;;11.98;100.00
61318;BME280;47201;40.428;-8.436;2023-04-01T04:36:36;101476.25;;;12.01;100.00
61318;BME280;47201;40.428;-8.436;2023-04-01T04:38:37;101468.41;;;12.07;100.00
61318;BME280;47201;40.428;-8.436;2023-04-01T04:40:57;101464.94;;;12.13;100.00
61318;BME280;47201;40.428;-8.436;2023-04-01T04:42:58;101469.34;;;12.17;100.00
61318;BME280;47201;40.428;-8.436;2023-04-01T04:44:59;101467.59;;;12.17;100.00
61318;BME280;47201;40.428;-8.436;2023-04-01T04:47:18;101463.19;;;12.18;100.00
61318;BME280;47201;40.428;-8.436;2023-04-01T04:49:19;101468.44;;;12.18;100.00
61318;BME280;47201;40.428;-8.436;2023-04-01T04:51:19;101468.44;;;12.18;100.00
61318;BME280;47201;40.428;-8.436;2023-04-01T04:53:38;101467.59;;;12.20;100.00
61318;BME280;47201;40.428;-8.436;2023-04-01T04:55:43;101469.34;;;12.21;100.00
61318;BME280;47201;40.428;-8.436;2023-04-01T04:58:02;101473.72;;;12.22;100.00
61318;BME280;47201;40.428;-8.436;2023-04-01T05:00:05;101465.84;;;12.22;100.00
61318;BME280;47201;40.428;-8.436;2023-04-01T05:02:24;101480.72;;;12.24;100.00
61318;BME280;47201;40.428;-8.436;2023-04-01T05:04:24;101479.84;;;12.25;100.00
61318;BME280;47201;40.428;-8.436;2023-04-01T05:06:25;101471.09;;;12.22;100.00
61318;BME280;47201;40.428;-8.436;2023-04-01T05:08:48;101481.56;;;12.22;100.00
61318;BME280;47201;40.428;-8.436;2023-04-01T05:11:07;101479.81;;;12.21;100.00
61318;BME280;47201;40.428;-8.436;2023-04-01T05:13:12;101488.56;;;12.19;100.00
61318;BME280;47201;40.428;-8.436;2023-04-01T05:15:14;101483.31;;;12.19;100.00
61318;BME280;47201;40.428;-8.436;2023-04-01T05:17:34;101474.59;;;12.18;100.00
61318;BME280;47201;40.428;-8.436;2023-04-01T05:19:37;101471.06;;;12.16;100.00
61318;BME280;47201;40.428;-8.436;2023-04-01T05:21:56;101478.94;;;12.18;100.00
61318;BME280;47201;40.428;-8.436;2023-04-01T05:24:15;101480.69;;;12.17;100.00
61318;BME280;47201;40.428;-8.436;2023-04-01T05:26:16;101485.06;;;12.20;100.00
61318;BME280;47201;40.428;-8.436;2023-04-01T05:28:36;101478.97;;;12.21;100.00
61318;BME280;47201;40.428;-8.436;2023-04-01T05:30:57;101487.72;;;12.23;100.00
61318;BME280;47201;40.428;-8.436;2023-04-01T05:33:01;101480.72;;;12.24;100.00
61318;BME280;47201;40.428;-8.436;2023-04-01T05:35:02;101492.94;;;12.26;100.00
61318;BME280;47201;40.428;-8.436;2023-04-01T05:37:03;101492.94;;;12.26;100.00
61318;BME280;47201;40.428;-8.436;2023-04-01T05:39:21;101485.13;;;12.28;100.00
61318;BME280;47201;40.428;-8.436;2023-04-01T05:41:24;101491.22;;;12.30;100.00
61318;BME280;47201;40.428;-8.436;2023-04-01T05:43:25;101490.34;;;12.31;100.00
61318;BME280;47201;40.428;-8.436;2023-04-01T05:45:28;101493.88;;;12.31;100.00
61318;BME280;47201;40.428;-8.436;2023-04-01T05:47:48;101499.97;;;12.33;100.00
61318;BME280;47201;40.428;-8.436;2023-04-01T05:50:07;101501.72;;;12.34;100.00
61318;BME280;47201;40.428;-8.436;2023-04-01T05:52:26;101509.63;;;12.36;100.00
61318;BME280;47201;40.428;-8.436;2023-04-01T05:54:26;101508.75;;;12.40;100.00
61318;BME280;47201;40.428;-8.436;2023-04-01T05:56:27;101509.59;;;12.41;100.00
61318;BME280;47201;40.428;-8.436;2023-04-01T05:58:28;101518.38;;;12.43;100.00
61318;BME280;47201;40.428;-8.436;2023-04-01T06:00:29;101508.78;;;12.43;100.00
61318;BME280;47201;40.428;-8.436;2023-04-01T06:02:32;101513.13;;;12.44;100.00
61318;BME280;47201;40.428;-8.436;2023-04-01T06:04:54;101517.50;;;12.45;100.00
61318;BME280;47201;40.428;-8.436;2023-04-01T06:06:57;101516.63;;;12.46;100.00
61318;BME280;47201;40.428;-8.436;2023-04-01T06:09:04;101516.63;;;12.48;100.00
61318;BME280;47201;40.428;-8.436;2023-04-01T06:13:50;101523.63;;;12.47;100.00
61318;BME280;47201;40.428;-8.436;2023-04-01T06:15:57;101518.38;;;12.47;100.00
61318;BME280;47201;40.428;-8.436;2023-04-01T06:22:19;101514.91;;;12.48;100.00
61318;BME280;47201;40.428;-8.436;2023-04-01T06:29:14;101521.00;;;12.47;100.00
61318;BME280;47201;40.428;-8.436;2023-04-01T06:38:52;101523.66;;;12.53;100.00
61318;BME280;47201;40.428;-8.436;2023-04-01T06:50:30;101504.31;;;12.28;100.00
61318;BME280;47201;40.428;-8.436;2023-04-01T06:57:43;101519.19;;;12.28;100.00
61318;BME280;47201;40.428;-8.436;2023-04-01T07:00:11;101518.28;;;12.29;100.00
61318;BME280;47201;40.428;-8.436;2023-04-01T07:04:15;101516.56;;;12.32;100.00
61318;BME280;47201;40.428;-8.436;2023-04-01T07:06:27;101524.47;;;12.34;100.00
61318;BME280;47201;40.428;-8.436;2023-04-01T07:08:31;101525.34;;;12.39;100.00
61318;BME280;47201;40.428;-8.436;2023-04-01T07:10:48;101523.59;;;12.44;100.00
61318;BME280;47201;40.428;-8.436;2023-04-01T07:13:21;101524.50;;;12.48;100.00
61318;BME280;47201;40.428;-8.436;2023-04-01T07:15:31;101518.38;;;12.44;100.00
61318;BME280;47201;40.428;-8.436;2023-04-01T07:17:53;101501.78;;;12.48;100.00
61318;BME280;47201;40.428;-8.436;2023-04-01T07:20:22;101509.63;;;12.51;100.00
61318;BME280;47201;40.428;-8.436;2023-04-01T07:22:28;101509.66;;;12.54;100.00
61318;BME280;47201;40.428;-8.436;2023-04-01T07:24:56;101509.69;;;12.62;100.00
61318;BME280;47201;40.428;-8.436;2023-04-01T07:27:18;101505.34;;;12.69;100.00
61318;BME280;47201;40.428;-8.436;2023-04-01T07:29:37;101507.97;;;12.78;100.00
61318;BME280;47201;40.428;-8.436;2023-04-01T07:36:24;101517.63;;;12.98;100.00
61318;BME280;47201;40.428;-8.436;2023-04-01T07:40:55;101529.03;;;13.12;100.00
61318;BME280;47201;40.428;-8.436;2023-04-01T07:43:28;101517.66;;;13.16;100.00
61318;BME280;47201;40.428;-8.436;2023-04-01T07:46:04;101522.91;;;13.18;100.00
61318;BME280;47201;40.428;-8.436;2023-04-01T07:48:36;101517.66;;;13.18;100.00
61318;BME280;47201;40.428;-8.436;2023-04-01T07:50:46;101511.53;;;13.16;100.00
61318;BME280;47201;40.428;-8.436;2023-04-01T07:53:22;101504.53;;;13.13;100.00
61318;BME280;47201;40.428;-8.436;2023-04-01T07:58:11;101519.41;;;13.16;100.00
61318;BME280;47201;40.428;-8.436;2023-04-01T08:00:37;101514.16;;;13.17;100.00
61318;BME280;47201;40.428;-8.436;2023-04-01T08:09:27;101508.94;;;13.45;100.00
61318;BME280;47201;40.428;-8.436;2023-04-01T08:11:55;101505.44;;;13.53;100.00
61318;BME280;47201;40.428;-8.436;2023-04-01T08:14:22;101516.81;;;13.66;100.00
61318;BME280;47201;40.428;-8.436;2023-04-01T08:22:15;101516.75;;;13.79;100.00
61318;BME280;47201;40.428;-8.436;2023-04-01T08:26:45;101519.38;;;13.89;100.00
61318;BME280;47201;40.428;-8.436;2023-04-01T08:28:56;101517.59;;;13.94;100.00
61318;BME280;47201;40.428;-8.436;2023-04-01T08:31:04;101507.97;;;13.99;100.00
61318;BME280;47201;40.428;-8.436;2023-04-01T08:37:39;101505.28;;;14.16;100.00
61318;BME280;47201;40.428;-8.436;2023-04-01T08:39:42;101500.84;;;14.29;100.00
61318;BME280;47201;40.428;-8.436;2023-04-01T08:44:21;101498.97;;;14.56;100.00
61318;BME280;47201;40.428;-8.436;2023-04-01T08:48:53;101495.41;;;14.72;100.00
61318;BME280;47201;40.428;-8.436;2023-04-01T08:51:16;101495.41;;;14.60;100.00
61318;BME280;47201;40.428;-8.436;2023-04-01T08:55:44;101488.50;;;14.42;100.00
61318;BME280;47201;40.428;-8.436;2023-04-01T08:58:08;101495.56;;;14.32;100.00
61318;BME280;47201;40.428;-8.436;2023-04-01T09:00:22;101491.16;;;14.37;100.00
61318;BME280;47201;40.428;-8.436;2023-04-01T09:11:33;101517.28;;;14.81;100.00
61318;BME280;47201;40.428;-8.436;2023-04-01T09:14:12;101521.63;;;14.88;100.00
61318;BME280;47201;40.428;-8.436;2023-04-01T09:27:43;101521.81;;;14.51;100.00
61318;BME280;47201;40.428;-8.436;2023-04-01T09:34:52;101527.91;;;14.53;100.00
61318;BME280;47201;40.428;-8.436;2023-04-01T09:41:18;101531.44;;;14.46;100.00
61318;BME280;47201;40.428;-8.436;2023-04-01T09:45:43;101526.28;;;14.28;100.00
61318;BME280;47201;40.428;-8.436;2023-04-01T09:52:45;101536.00;;;14.00;100.00
61318;BME280;47201;40.428;-8.436;2023-04-01T09:55:16;101529.88;;;14.00;100.00
61318;BME280;47201;40.428;-8.436;2023-04-01T10:05:12;101536.91;;;13.87;100.00
61318;BME280;47201;40.428;-8.436;2023-04-01T10:34:35;101529.38;;;15.08;100.00
61318;BME280;47201;40.428;-8.436;2023-04-01T10:48:13;101511.91;;;14.95;100.00
61318;BME280;47201;40.428;-8.436;2023-04-01T10:50:24;101512.66;;;15.14;100.00
61318;BME280;47201;40.428;-8.436;2023-04-01T11:27:41;101471.84;;;14.41;100.00
61318;BME280;47201;40.428;-8.436;2023-04-01T11:32:02;101465.72;;;14.39;100.00
61318;BME280;47201;40.428;-8.436;2023-04-01T11:41:18;101462.97;;;14.61;100.00
61318;BME280;47201;40.428;-8.436;2023-04-01T11:46:11;101462.00;;;14.79;100.00
61318;BME280;47201;40.428;-8.436;2023-04-01T11:53:00;101446.00;;;15.07;100.00
61318;BME280;47201;40.428;-8.436;2023-04-01T11:57:12;101437.13;;;15.19;100.00
61318;BME280;47201;40.428;-8.436;2023-04-01T12:06:11;101438.22;;;14.93;100.00
61318;BME280;47201;40.428;-8.436;2023-04-01T12:10:40;101441.72;;;14.92;100.00
61318;BME280;47201;40.428;-8.436;2023-04-01T12:19:51;101449.19;;;15.43;100.00
61318;BME280;47201;40.428;-8.436;2023-04-01T12:22:17;101444.75;;;15.47;100.00
61318;BME280;47201;40.428;-8.436;2023-04-01T12:24:25;101442.03;;;15.56;100.00
61318;BME280;47201;40.428;-8.436;2023-04-01T12:26:39;101444.75;;;15.47;100.00
61318;BME280;47201;40.428;-8.436;2023-04-01T12:31:18;101435.25;;;15.32;100.00
61318;BME280;47201;40.428;-8.436;2023-04-01T12:33:40;101434.41;;;15.30;100.00
61318;BME280;47201;40.428;-8.436;2023-04-01T12:41:17;101422.06;;;15.35;100.00
61318;BME280;47201;40.428;-8.436;2023-04-01T12:47:35;101414.91;;;15.48;100.00
61318;BME280;47201;40.428;-8.436;2023-04-01T12:54:09;101416.44;;;15.67;100.00
61318;BME280;47201;40.428;-8.436;2023-04-01T12:58:55;101412.94;;;15.65;100.00
61318;BME280;47201;40.428;-8.436;2023-04-01T13:01:27;101411.88;;;15.82;100.00
61318;BME280;47201;40.428;-8.436;2023-04-01T13:08:15;101415.13;;;16.06;100.00
61318;BME280;47201;40.428;-8.436;2023-04-01T13:12:49;101418.72;;;16.00;100.00
61318;BME280;47201;40.428;-8.436;2023-04-01T13:15:23;101407.16;;;16.09;100.00
61318;BME280;47201;40.428;-8.436;2023-04-01T13:22:15;101413.41;;;16.03;100.00
61318;BME280;47201;40.428;-8.436;2023-04-01T13:28:44;101406.88;;;16.30;100.00
61318;BME280;47201;40.428;-8.436;2023-04-01T13:45:24;101388.81;;;16.62;100.00
61318;BME280;47201;40.428;-8.436;2023-04-01T13:47:41;101386.44;;;17.01;100.00
61318;BME280;47201;40.428;-8.436;2023-04-01T13:52:41;101380.38;;;17.87;100.00
61318;BME280;47201;40.428;-8.436;2023-04-01T13:54:54;101389.00;;;17.97;100.00
61318;BME280;47201;40.428;-8.436;2023-04-01T14:21:38;101386.38;;;16.48;100.00
61318;BME280;47201;40.428;-8.436;2023-04-01T14:42:39;101370.63;;;16.43;100.00
61318;BME280;47201;40.428;-8.436;2023-04-01T14:45:27;101373.81;;;16.65;100.00
61318;BME280;47201;40.428;-8.436;2023-04-01T14:51:50;101353.22;;;16.86;100.00
61318;BME280;47201;40.428;-8.436;2023-04-01T14:53:58;101356.31;;;17.11;100.00
61318;BME280;47201;40.428;-8.436;2023-04-01T14:56:34;101356.41;;;17.52;100.00
61318;BME280;47201;40.428;-8.436;2023-04-01T14:58:57;101367.75;;;17.57;100.00
61318;BME280;47201;40.428;-8.436;2023-04-01T15:05:39;101367.56;;;17.21;100.00
61318;BME280;47201;40.428;-8.436;2023-04-01T15:08:08;101372.34;;;17.01;100.00
61318;BME280;47201;40.428;-8.436;2023-04-01T15:12:32;101370.47;;;17.07;100.00
61318;BME280;47201;40.428;-8.436;2023-04-01T15:28:24;101350.06;;;18.77;100.00
61318;BME280;47201;40.428;-8.436;2023-04-01T15:35:52;101352.72;;;18.77;100.00
61318;BME280;47201;40.428;-8.436;2023-04-01T15:38:06;101352.06;;;18.69;100.00
61318;BME280;47201;40.428;-8.436;2023-04-01T15:42:41;101347.59;;;18.71;100.00
61318;BME280;47201;40.428;-8.436;2023-04-01T15:56:28;101343.97;;;18.39;100.00
61318;BME280;47201;40.428;-8.436;2023-04-01T16:01:19;101349.69;;;18.20;100.00
61318;BME280;47201;40.428;-8.436;2023-04-01T16:05:44;101349.28;;;18.00;100.00
61318;BME280;47201;40.428;-8.436;2023-04-01T16:15:52;101344.91;;;17.55;100.00
61318;BME280;47201;40.428;-8.436;2023-04-01T16:20:20;101347.13;;;17.75;100.00
61318;BME280;47201;40.428;-8.436;2023-04-01T16:24:33;101338.72;;;18.00;100.00
61318;BME280;47201;40.428;-8.436;2023-04-01T16:26:39;101343.06;;;18.02;100.00
61318;BME280;47201;40.428;-8.436;2023-04-01T16:33:14;101344.06;;;17.97;100.00
61318;BME280;47201;40.428;-8.436;2023-04-01T16:37:28;101342.38;;;17.91;100.00
61318;BME280;47201;40.428;-8.436;2023-04-01T16:41:40;101336.03;;;17.59;100.00
61318;BME280;47201;40.428;-8.436;2023-04-01T16:44:44;101334.53;;;17.46;100.00
61318;BME280;47201;40.428;-8.436;2023-04-01T16:46:43;101340.97;;;17.31;100.00
61318;BME280;47201;40.428;-8.436;2023-04-01T16:51:13;101336.75;;;17.20;100.00
61318;BME280;47201;40.428;-8.436;2023-04-01T16:57:56;101341.06;;;17.27;100.00
61318;BME280;47201;40.428;-8.436;2023-04-01T17:02:26;101342.03;;;17.20;100.00
61318;BME280;47201;40.428;-8.436;2023-04-01T17:04:57;101343.84;;;17.20;100.00
61318;BME280;47201;40.428;-8.436;2023-04-01T17:18:40;101338.63;;;17.60;100.00
61318;BME280;47201;40.428;-8.436;2023-04-01T17:28:26;101345.97;;;17.46;100.00
61318;BME280;47201;40.428;-8.436;2023-04-01T17:30:35;101350.47;;;17.41;100.00
61318;BME280;47201;40.428;-8.436;2023-04-01T17:35:25;101348.34;;;16.63;100.00
61318;BME280;47201;40.428;-8.436;2023-04-01T17:42:20;101346.44;;;16.13;100.00
61318;BME280;47201;40.428;-8.436;2023-04-01T17:48:45;101340.69;;;15.83;100.00
61318;BME280;47201;40.428;-8.436;2023-04-01T17:59:29;101343.72;;;15.49;100.00
61318;BME280;47201;40.428;-8.436;2023-04-01T18:03:57;101348.06;;;15.53;100.00
61318;BME280;47201;40.428;-8.436;2023-04-01T18:25:20;101355.06;;;15.58;100.00
61318;BME280;47201;40.428;-8.436;2023-04-01T18:29:53;101348.19;;;15.43;100.00
61318;BME280;47201;40.428;-8.436;2023-04-01T18:32:15;101344.72;;;15.39;100.00
61318;BME280;47201;40.428;-8.436;2023-04-01T18:39:32;101341.31;;;15.32;100.00
61318;BME280;47201;40.428;-8.436;2023-04-01T18:41:36;101348.31;;;15.32;100.00
61318;BME280;47201;40.428;-8.436;2023-04-01T18:46:41;101353.63;;;15.27;100.00
61318;BME280;47201;40.428;-8.436;2023-04-01T18:48:49;101361.59;;;15.24;100.00
61318;BME280;47201;40.428;-8.436;2023-04-01T18:50:53;101358.13;;;15.19;100.00
61318;BME280;47201;40.428;-8.436;2023-04-01T18:57:15;101377.47;;;15.12;100.00
61318;BME280;47201;40.428;-8.436;2023-04-01T18:59:26;101370.50;;;15.07;100.00
61318;BME280;47201;40.428;-8.436;2023-04-01T19:04:00;101383.72;;;15.03;100.00
61318;BME280;47201;40.428;-8.436;2023-04-01T19:06:09;101384.59;;;15.02;100.00
61318;BME280;47201;40.428;-8.436;2023-04-01T19:08:35;101387.28;;;14.99;100.00
61318;BME280;47201;40.428;-8.436;2023-04-01T19:10:40;101389.03;;;14.97;100.00
61318;BME280;47201;40.428;-8.436;2023-04-01T19:12:50;101380.25;;;14.98;100.00
61318;BME280;47201;40.428;-8.436;2023-04-01T19:14:56;101388.19;;;14.96;100.00
61318;BME280;47201;40.428;-8.436;2023-04-01T19:17:04;101387.28;;;14.96;100.00
61318;BME280;47201;40.428;-8.436;2023-04-01T19:19:10;101382.03;;;14.96;100.00
61318;BME280;47201;40.428;-8.436;2023-04-01T19:30:54;101408.34;;;14.96;100.00
61318;BME280;47201;40.428;-8.436;2023-04-01T19:35:31;101411.00;;;14.94;100.00
61318;BME280;47201;40.428;-8.436;2023-04-01T19:37:40;101406.63;;;14.93;100.00
61318;BME280;47201;40.428;-8.436;2023-04-01T19:44:46;101426.94;;;14.79;100.00